Time;durP1;ratioP1;P1;durP2;ratioP2;P2;SDS_P1;SDS_P2;PMS_P1;PMS_P2;Temp;Humidity;BMP_temperature;BMP_pressure;BME280_temperature;BME280_humidity;BME280_pressure;Samples;Min_cycle;Max_cycle;Signal;HPM_P1;HPM_P2
2022/08/27 00:01:40;;;;;;;9.57;6.65;;;18.80;90.30;;;;;;9552743;31;20047;-82
2022/08/27 00:06:40;;;;;;;12.27;6.70;;;18.70;91.00;;;;;;9566972;31;20138;-82
2022/08/27 00:11:41;;;;;;;8.13;6.00;;;18.40;91.80;;;;;;9555449;31;20058;-82
2022/08/27 00:16:42;;;;;;;11.10;6.57;;;18.10;92.70;;;;;;9540900;31;20051;-83
2022/08/27 00:21:43;;;;;;;11.75;6.30;;;17.80;93.50;;;;;;9537501;31;20064;-82
2022/08/27 00:26:44;;;;;;;10.55;6.25;;;17.60;94.90;;;;;;9560528;31;20482;-84
2022/08/27 00:31:45;;;;;;;14.55;7.20;;;17.50;95.00;;;;;;9542529;31;20048;-82
2022/08/27 00:36:46;;;;;;;11.65;6.32;;;17.60;94.20;;;;;;9566394;31;20405;-85
2022/08/27 00:41:47;;;;;;;15.25;6.18;;;17.90;93.70;;;;;;9549553;31;20052;-83
2022/08/27 00:46:54;;;;;;;9.57;6.57;;;18.10;92.90;;;;;;9542074;31;20122;-83
2022/08/27 00:52:03;;;;;;;15.63;5.80;;;18.30;92.30;;;;;;9539868;31;20418;-85
2022/08/27 00:57:04;;;;;;;10.68;6.65;;;18.40;91.90;;;;;;9540704;31;20102;-84
2022/08/27 01:02:19;;;;;;;12.77;6.47;;;18.40;92.60;;;;;;9540344;31;20454;-82
2022/08/27 01:07:21;;;;;;;14.60;6.38;;;18.30;93.60;;;;;;9540472;31;20051;-82
2022/08/27 01:12:22;;;;;;;15.15;6.97;;;18.00;94.40;;;;;;9540057;31;20087;-82
2022/08/27 01:17:23;;;;;;;10.10;6.38;;;17.70;95.60;;;;;;9540508;31;20055;-84
2022/08/27 01:22:41;;;;;;;12.13;6.50;;;17.50;97.10;;;;;;9540310;31;20478;-85
2022/08/27 01:27:44;;;;;;;10.20;5.93;;;17.30;98.30;;;;;;9539757;31;20486;-82
2022/08/27 01:32:48;;;;;;;11.38;6.78;;;17.20;99.40;;;;;;9538514;31;20056;-85
2022/08/27 01:37:52;;;;;;;12.20;6.53;;;17.10;99.90;;;;;;9521876;31;20500;-85
2022/08/27 01:42:55;;;;;;;10.65;6.32;;;17.00;99.90;;;;;;9532838;31;20035;-84
2022/08/27 01:47:57;;;;;;;11.48;6.78;;;17.00;99.90;;;;;;9531475;31;20063;-83
2022/08/27 01:53:06;;;;;;;11.50;6.10;;;17.10;99.90;;;;;;9520031;31;20075;-83
2022/08/27 01:58:07;;;;;;;14.20;7.00;;;17.50;99.50;;;;;;9526214;31;20036;-86
2022/08/27 02:03:09;;;;;;;9.55;6.05;;;17.80;97.80;;;;;;9534788;31;20443;-86
2022/08/27 02:08:12;;;;;;;12.27;7.13;;;17.80;98.80;;;;;;9535414;31;20126;-84
2022/08/27 02:13:12;;;;;;;10.57;5.95;;;17.70;98.20;;;;;;9530515;31;20472;-86
2022/08/27 02:18:13;;;;;;;11.63;6.50;;;17.70;97.70;;;;;;9538802;31;20035;-84
2022/08/27 02:23:15;;;;;;;8.80;6.35;;;17.80;97.60;;;;;;9533537;31;20095;-85
2022/08/27 02:28:16;;;;;;;9.45;6.00;;;17.90;97.80;;;;;;9537960;31;20050;-85
2022/08/27 02:33:17;;;;;;;11.82;6.78;;;17.90;98.20;;;;;;9544791;31;20494;-84
2022/08/27 02:38:19;;;;;;;11.98;6.80;;;17.90;97.30;;;;;;9552514;31;20043;-83
2022/08/27 02:43:20;;;;;;;12.23;6.70;;;17.80;98.50;;;;;;9562061;31;20043;-84
2022/08/27 02:48:21;;;;;;;8.85;6.30;;;17.60;99.40;;;;;;9561577;31;20103;-82
2022/08/27 02:53:22;;;;;;;10.43;6.57;;;17.30;99.50;;;;;;9550838;31;20090;-83
2022/08/27 02:58:23;;;;;;;8.13;6.03;;;17.30;99.90;;;;;;9551017;31;20447;-83
2022/08/27 03:03:24;;;;;;;11.80;6.20;;;17.20;99.90;;;;;;9544141;31;20032;-83
2022/08/27 03:08:26;;;;;;;14.57;6.55;;;17.20;99.90;;;;;;9558888;31;20028;-82
2022/08/27 03:13:26;;;;;;;10.98;6.70;;;17.30;99.40;;;;;;9549766;31;20047;-83
2022/08/27 03:18:27;;;;;;;10.10;6.25;;;17.50;99.90;;;;;;9558483;31;20046;-84
2022/08/27 03:23:31;;;;;;;11.07;5.97;;;17.50;99.90;;;;;;9565143;30;20142;-85
2022/08/27 03:28:35;;;;;;;9.73;6.38;;;17.50;99.90;;;;;;9545884;31;20518;-82
2022/08/27 03:33:38;;;;;;;10.60;6.43;;;17.30;99.90;;;;;;9554925;31;20051;-84
2022/08/27 03:38:39;;;;;;;10.07;6.50;;;17.20;99.90;;;;;;9550206;31;20032;-83
2022/08/27 03:43:39;;;;;;;10.07;6.32;;;17.00;99.90;;;;;;9550127;31;20402;-82
2022/08/27 03:48:40;;;;;;;12.52;6.90;;;17.00;99.90;;;;;;9555301;31;20422;-83
2022/08/27 03:53:43;;;;;;;11.10;6.25;;;17.10;99.90;;;;;;9570973;30;20687;-83
2022/08/27 03:58:43;;;;;;;12.02;6.35;;;17.10;99.90;;;;;;9553585;31;20191;-83
2022/08/27 04:03:44;;;;;;;9.50;5.82;;;17.00;99.90;;;;;;9559658;31;20039;-84
2022/08/27 04:08:44;;;;;;;11.68;7.05;;;16.90;99.90;;;;;;9544646;31;20553;-83
2022/08/27 04:13:45;;;;;;;15.05;6.97;;;16.70;99.90;;;;;;9538101;31;20114;-83
2022/08/27 04:18:46;;;;;;;11.50;6.82;;;16.70;99.90;;;;;;9563224;30;20490;-85
2022/08/27 04:23:46;;;;;;;13.48;6.85;;;16.90;99.90;;;;;;9566743;31;20114;-84
2022/08/27 04:28:47;;;;;;;9.93;6.25;;;17.20;99.90;;;;;;9548809;31;20043;-82
2022/08/27 04:33:47;;;;;;;14.55;7.68;;;17.30;99.90;;;;;;9554486;31;20086;-82
2022/08/27 04:38:48;;;;;;;10.60;6.60;;;17.30;99.90;;;;;;9542931;31;20047;-82
2022/08/27 04:43:53;;;;;;;10.52;6.55;;;17.10;99.90;;;;;;9541435;31;20043;-84
2022/08/27 04:48:56;;;;;;;9.95;6.93;;;17.00;99.90;;;;;;9560727;31;20138;-86
2022/08/27 04:53:57;;;;;;;10.68;7.30;;;17.00;99.90;;;;;;9558500;31;20043;-83
2022/08/27 04:58:58;;;;;;;12.18;7.20;;;17.00;99.90;;;;;;9543429;31;20059;-82
2022/08/27 05:03:58;;;;;;;11.82;6.63;;;17.20;99.90;;;;;;9539119;31;20035;-83
2022/08/27 05:08:59;;;;;;;10.80;7.18;;;17.40;99.90;;;;;;9555750;31;20039;-83
2022/08/27 05:14:05;;;;;;;11.25;6.70;;;17.60;99.90;;;;;;9566904;31;20066;-84
2022/08/27 05:19:08;;;;;;;10.27;6.78;;;17.80;99.90;;;;;;9549270;31;20048;-83
2022/08/27 05:24:09;;;;;;;9.75;6.90;;;18.10;99.90;;;;;;9550510;31;20119;-83
2022/08/27 05:29:10;;;;;;;11.50;7.45;;;18.50;99.90;;;;;;9562862;31;20028;-83
2022/08/27 05:34:10;;;;;;;15.68;7.95;;;18.70;99.90;;;;;;9567088;31;20036;-86
2022/08/27 05:39:11;;;;;;;13.63;7.30;;;19.00;99.90;;;;;;9562726;31;20516;-83
2022/08/27 05:44:12;;;;;;;11.45;6.63;;;19.00;99.90;;;;;;9560863;31;20035;-83
2022/08/27 05:49:13;;;;;;;11.88;7.72;;;19.10;99.90;;;;;;9541426;31;20098;-83
2022/08/27 05:54:18;;;;;;;9.25;6.25;;;19.20;99.90;;;;;;9551115;31;20067;-81
2022/08/27 06:04:37;;;;;;;16.42;8.93;;;19.40;99.90;;;;;;9559745;31;20730;-86
2022/08/27 06:09:38;;;;;;;16.33;8.27;;;19.60;99.90;;;;;;9554342;31;20031;-86
2022/08/27 06:14:39;;;;;;;12.07;7.80;;;19.80;99.90;;;;;;9572236;31;20493;-85
2022/08/27 06:19:41;;;;;;;13.75;7.95;;;19.90;99.90;;;;;;9540095;31;20043;-87
2022/08/27 06:24:42;;;;;;;12.10;6.93;;;20.10;99.90;;;;;;9541899;31;20059;-88
2022/08/27 06:29:44;;;;;;;13.25;7.55;;;20.20;99.90;;;;;;9563575;31;20544;-87
2022/08/27 06:34:46;;;;;;;10.25;7.20;;;20.30;99.90;;;;;;9546765;31;20126;-87
2022/08/27 06:39:46;;;;;;;11.35;7.47;;;20.50;99.90;;;;;;9555463;31;20043;-87
2022/08/27 06:44:47;;;;;;;12.10;7.32;;;20.60;99.90;;;;;;9556516;31;20051;-87
2022/08/27 06:49:48;;;;;;;16.77;8.98;;;20.80;98.20;;;;;;9537531;31;20078;-86
2022/08/27 06:54:49;;;;;;;16.67;8.40;;;20.90;97.50;;;;;;9557530;31;20412;-86
2022/08/27 06:59:50;;;;;;;14.73;8.93;;;21.00;97.20;;;;;;9552118;31;20086;-85
2022/08/27 07:04:53;;;;;;;17.67;7.82;;;21.20;96.00;;;;;;9558413;31;20044;-87
2022/08/27 07:09:53;;;;;;;12.75;7.50;;;21.40;95.50;;;;;;9569988;31;20453;-87
2022/08/27 07:14:54;;;;;;;14.45;7.70;;;21.70;95.60;;;;;;9559126;31;20043;-87
2022/08/27 07:19:55;;;;;;;12.13;7.88;;;21.90;94.60;;;;;;9548534;31;20102;-91
2022/08/27 07:24:56;;;;;;;17.30;7.90;;;22.10;93.30;;;;;;9551480;30;20059;-88
2022/08/27 07:29:58;;;;;;;14.13;7.95;;;22.40;94.30;;;;;;9554798;31;20047;-89
2022/08/27 07:34:59;;;;;;;12.75;6.80;;;22.70;92.40;;;;;;9556264;31;20045;-88
2022/08/27 07:39:59;;;;;;;17.00;7.72;;;22.90;91.80;;;;;;9564373;31;20037;-87
2022/08/27 07:45:00;;;;;;;12.95;7.22;;;23.20;91.10;;;;;;9553920;31;20125;-87
2022/08/27 07:50:00;;;;;;;9.40;6.45;;;23.60;90.00;;;;;;9547863;31;20051;-88
2022/08/27 07:55:01;;;;;;;14.48;7.00;;;24.00;88.00;;;;;;9558394;31;20039;-87
2022/08/27 08:00:03;;;;;;;14.35;6.90;;;24.40;84.10;;;;;;9527151;31;20099;-85
2022/08/27 08:05:05;;;;;;;12.27;6.90;;;24.80;85.60;;;;;;9549338;31;20071;-84
2022/08/27 08:10:08;;;;;;;10.98;6.38;;;25.20;82.10;;;;;;9563160;31;20035;-84
2022/08/27 08:15:10;;;;;;;9.25;5.75;;;25.50;81.00;;;;;;9549246;31;20442;-85
2022/08/27 08:20:11;;;;;;;13.93;6.18;;;25.80;81.10;;;;;;9562203;30;20040;-84
2022/08/27 08:25:12;;;;;;;10.18;6.45;;;26.10;80.80;;;;;;9552106;31;20444;-85
2022/08/27 08:30:14;;;;;;;11.52;6.03;;;26.40;78.70;;;;;;9551182;31;20051;-84
2022/08/27 08:35:16;;;;;;;8.45;5.43;;;26.60;77.70;;;;;;9569091;31;20035;-85
2022/08/27 08:40:36;;;;;;;9.20;5.40;;;26.90;77.60;;;;;;9558065;31;20509;-85
2022/08/27 08:45:38;;;;;;;8.15;5.00;;;27.20;75.40;;;;;;9539515;31;20031;-86
2022/08/27 08:50:54;;;;;;;11.00;4.82;;;27.50;75.10;;;;;;9553990;31;20055;-85
2022/08/27 08:56:00;;;;;;;5.97;4.82;;;27.70;73.50;;;;;;9560258;31;20040;-85
2022/08/27 09:01:04;;;;;;;9.35;5.50;;;28.00;71.60;;;;;;9541958;31;20066;-85
2022/08/27 09:06:37;;;;;;;12.27;5.28;;;28.30;69.50;;;;;;9554202;31;20179;-85
2022/08/27 09:11:58;;;;;;;7.57;5.30;;;28.50;70.30;;;;;;9535672;31;20059;-87
2022/08/27 09:17:00;;;;;;;9.05;6.25;;;28.40;68.70;;;;;;9552104;31;20516;-84
2022/08/27 09:22:11;;;;;;;11.02;5.75;;;28.70;69.30;;;;;;9574157;31;20060;-86
2022/08/27 09:27:14;;;;;;;10.32;5.47;;;29.00;69.60;;;;;;9557935;31;20040;-84
2022/08/27 09:32:15;;;;;;;13.85;6.97;;;29.20;69.70;;;;;;9558436;31;20051;-85
2022/08/27 09:37:21;;;;;;;15.13;6.57;;;29.10;68.80;;;;;;9561514;31;20126;-85
2022/08/27 09:42:35;;;;;;;9.60;6.80;;;29.40;70.40;;;;;;9562441;31;20052;-85
2022/08/27 09:47:49;;;;;;;14.10;6.82;;;29.50;69.80;;;;;;9569299;31;20062;-85
2022/08/27 09:52:55;;;;;;;8.43;5.60;;;29.50;69.20;;;;;;9557686;31;20047;-83
2022/08/27 09:57:55;;;;;;;10.25;6.13;;;29.60;67.90;;;;;;9557481;31;20048;-82
2022/08/27 10:03:01;;;;;;;12.20;6.35;;;29.60;65.90;;;;;;9544355;31;20094;-83
2022/08/27 10:08:12;;;;;;;16.40;6.75;;;29.80;66.90;;;;;;9542686;31;20130;-84
2022/08/27 10:13:18;;;;;;;12.43;6.72;;;29.70;67.00;;;;;;9562280;31;20071;-82
2022/08/27 10:18:40;;;;;;;10.57;7.50;;;29.60;66.70;;;;;;9555862;31;20043;-83
2022/08/27 10:24:16;;;;;;;18.35;8.32;;;29.60;69.60;;;;;;9555541;31;20101;-84
2022/08/27 10:29:42;;;;;;;20.55;9.10;;;29.60;68.30;;;;;;9521829;31;20834;-83
2022/08/27 10:34:52;;;;;;;14.68;8.10;;;29.80;70.00;;;;;;9566738;31;20063;-83
2022/08/27 10:40:03;;;;;;;14.45;9.27;;;29.70;69.10;;;;;;9564421;31;20040;-82
2022/08/27 10:45:12;;;;;;;17.27;9.85;;;29.60;73.30;;;;;;9538353;31;20032;-84
2022/08/27 10:50:33;;;;;;;11.80;8.82;;;29.60;73.40;;;;;;9531786;31;20394;-84
2022/08/27 10:55:41;;;;;;;18.20;9.70;;;29.60;72.70;;;;;;9545137;31;20083;-84
2022/08/27 11:01:04;;;;;;;19.58;9.65;;;29.70;71.60;;;;;;9544675;31;20032;-83
2022/08/27 11:06:23;;;;;;;14.83;7.77;;;29.80;72.00;;;;;;9547413;31;20055;-83
2022/08/27 11:11:35;;;;;;;15.10;10.13;;;30.00;71.70;;;;;;9544046;31;20056;-84
2022/08/27 11:16:46;;;;;;;15.65;10.23;;;29.90;72.00;;;;;;9541751;30;20036;-85
2022/08/27 11:22:04;;;;;;;13.65;9.55;;;29.90;72.60;;;;;;9533934;31;20885;-83
2022/08/27 11:27:06;;;;;;;14.02;8.40;;;29.90;71.20;;;;;;9547983;31;20171;-85
2022/08/27 11:32:15;;;;;;;15.40;7.57;;;30.10;70.10;;;;;;9549208;31;20059;-84
2022/08/27 11:37:16;;;;;;;12.23;7.43;;;30.00;66.70;;;;;;9542937;31;20172;-83
2022/08/27 11:42:35;;;;;;;9.80;6.65;;;30.00;69.50;;;;;;9537866;31;20187;-83
2022/08/27 11:47:36;;;;;;;10.80;8.02;;;30.00;68.70;;;;;;9532969;31;20074;-84
2022/08/27 11:52:41;;;;;;;14.00;8.15;;;30.10;70.20;;;;;;9536776;31;20138;-84
2022/08/27 11:57:43;;;;;;;18.50;7.22;;;30.20;70.10;;;;;;9536678;31;20075;-84
2022/08/27 12:02:56;;;;;;;10.35;6.57;;;30.20;68.70;;;;;;9536208;31;20490;-83
2022/08/27 12:07:58;;;;;;;10.80;6.40;;;30.30;67.10;;;;;;9539285;31;20044;-84
2022/08/27 12:13:03;;;;;;;13.18;7.30;;;30.40;68.20;;;;;;9549845;31;20111;-82
2022/08/27 12:18:41;;;;;;;12.57;7.68;;;30.60;66.80;;;;;;9549603;31;20111;-83
2022/08/27 12:24:00;;;;;;;9.32;5.85;;;30.80;61.00;;;;;;9528635;31;20066;-84
2022/08/27 12:29:39;;;;;;;12.32;6.03;;;31.00;65.70;;;;;;9549559;31;20032;-83
2022/08/27 12:34:49;;;;;;;11.27;6.53;;;31.00;62.10;;;;;;9522143;31;20155;-85
2022/08/27 12:39:53;;;;;;;10.68;6.70;;;30.80;62.00;;;;;;9539437;31;20127;-85
2022/08/27 12:44:55;;;;;;;13.00;6.60;;;30.50;60.60;;;;;;9545605;31;20051;-86
2022/08/27 12:50:00;;;;;;;10.35;5.55;;;30.00;60.80;;;;;;9534013;31;20050;-84
2022/08/27 12:55:21;;;;;;;9.60;6.55;;;29.80;64.70;;;;;;9525785;31;20044;-84
2022/08/27 13:00:24;;;;;;;10.15;6.00;;;30.10;66.10;;;;;;9544045;31;20447;-85
2022/08/27 13:05:25;;;;;;;12.75;6.47;;;30.20;65.50;;;;;;9546309;30;20050;-85
2022/08/27 13:10:28;;;;;;;13.05;6.57;;;30.40;64.70;;;;;;9541889;31;20505;-85
2022/08/27 13:15:29;;;;;;;10.40;6.30;;;30.70;65.10;;;;;;9546995;31;20023;-84
2022/08/27 13:20:30;;;;;;;13.40;8.25;;;30.90;63.40;;;;;;9549132;31;20035;-85
2022/08/27 13:25:33;;;;;;;12.90;6.63;;;30.90;62.60;;;;;;9546452;31;20577;-84
2022/08/27 13:30:38;;;;;;;12.63;6.13;;;30.90;64.00;;;;;;9530708;31;20050;-84
2022/08/27 13:35:42;;;;;;;10.63;6.38;;;31.00;65.40;;;;;;9539084;31;20076;-85
2022/08/27 13:40:59;;;;;;;12.30;5.78;;;30.90;64.50;;;;;;9531223;31;20040;-85
2022/08/27 13:46:03;;;;;;;11.68;6.15;;;30.90;63.90;;;;;;9539828;31;20039;-85
2022/08/27 13:51:05;;;;;;;8.18;6.18;;;30.80;64.50;;;;;;9539666;31;20095;-85
2022/08/27 13:56:06;;;;;;;13.25;6.53;;;30.50;64.10;;;;;;9534713;31;20035;-85
2022/08/27 14:01:23;;;;;;;13.30;5.97;;;30.40;65.90;;;;;;9540998;31;20036;-86
2022/08/27 14:06:37;;;;;;;10.73;6.50;;;30.30;64.90;;;;;;9557095;31;20035;-84
2022/08/27 14:11:38;;;;;;;10.35;6.32;;;30.10;65.50;;;;;;9550571;31;20050;-85
2022/08/27 14:16:39;;;;;;;8.43;6.25;;;29.80;66.30;;;;;;9542902;30;20036;-86
2022/08/27 14:21:42;;;;;;;9.45;5.68;;;29.40;67.60;;;;;;9544514;31;20063;-85
2022/08/27 14:26:43;;;;;;;6.95;5.38;;;28.90;69.10;;;;;;9546378;31;20039;-84
2022/08/27 14:31:44;;;;;;;8.60;5.45;;;28.50;70.30;;;;;;9539117;31;20501;-85
2022/08/27 14:36:44;;;;;;;9.00;5.43;;;28.20;71.20;;;;;;9534737;31;20060;-83
2022/08/27 14:41:45;;;;;;;8.15;5.38;;;27.90;72.70;;;;;;9563143;31;20032;-84
2022/08/27 14:46:46;;;;;;;11.32;7.47;;;27.80;72.10;;;;;;9532695;31;20099;-84
2022/08/27 14:51:47;;;;;;;10.32;7.82;;;27.80;72.70;;;;;;9552370;31;20079;-85
2022/08/27 14:56:48;;;;;;;10.90;6.32;;;27.80;73.80;;;;;;9547486;31;20048;-85
2022/08/27 15:01:49;;;;;;;12.70;5.78;;;27.80;74.20;;;;;;9541259;31;20068;-85
2022/08/27 15:06:50;;;;;;;10.25;5.68;;;27.60;75.00;;;;;;9540881;31;20043;-84
2022/08/27 15:11:51;;;;;;;9.07;5.25;;;27.40;77.00;;;;;;9547812;31;20074;-83
2022/08/27 15:16:53;;;;;;;8.38;5.38;;;27.20;77.00;;;;;;9539273;31;20579;-83
2022/08/27 15:22:01;;;;;;;10.57;5.32;;;27.10;76.10;;;;;;9552856;31;20129;-83
2022/08/27 15:27:02;;;;;;;10.18;5.43;;;26.90;75.30;;;;;;9537186;31;20040;-84
2022/08/27 15:32:04;;;;;;;11.55;5.05;;;26.70;76.10;;;;;;9528574;31;20096;-84
2022/08/27 15:37:04;;;;;;;10.38;5.63;;;26.60;76.60;;;;;;9534304;31;20032;-83
2022/08/27 15:42:07;;;;;;;13.27;6.68;;;26.40;77.80;;;;;;9529520;31;20032;-84
2022/08/27 15:47:07;;;;;;;10.90;5.70;;;26.30;76.40;;;;;;9544734;31;20110;-83
2022/08/27 15:52:10;;;;;;;10.25;6.00;;;26.20;77.20;;;;;;9537055;31;20047;-82
2022/08/27 15:57:11;;;;;;;13.23;6.88;;;26.10;77.70;;;;;;9548161;31;20055;-85
2022/08/27 16:02:17;;;;;;;11.25;7.32;;;26.00;77.40;;;;;;9540600;31;20047;-83
2022/08/27 16:07:19;;;;;;;18.75;9.20;;;25.90;77.80;;;;;;9540377;31;20072;-84
2022/08/27 16:12:20;;;;;;;16.00;7.25;;;25.80;78.70;;;;;;9540795;31;20398;-83
2022/08/27 16:17:21;;;;;;;12.93;7.15;;;25.70;78.90;;;;;;9541574;31;20052;-84
2022/08/27 16:22:22;;;;;;;14.20;8.55;;;25.70;78.80;;;;;;9545113;31;20063;-84
2022/08/27 16:27:23;;;;;;;14.43;7.75;;;25.60;79.60;;;;;;9542014;31;20035;-84
2022/08/27 16:32:27;;;;;;;8.50;6.00;;;25.60;78.70;;;;;;9545779;31;20055;-85
2022/08/27 16:37:28;;;;;;;18.07;12.07;;;25.50;79.30;;;;;;9552290;31;20035;-84
2022/08/27 16:42:29;;;;;;;13.25;8.00;;;25.30;79.80;;;;;;9542918;31;20299;-85
2022/08/27 16:47:29;;;;;;;19.92;10.45;;;25.20;80.80;;;;;;9555249;30;20043;-85
2022/08/27 16:52:30;;;;;;;29.42;20.02;;;25.10;81.30;;;;;;9540033;31;20048;-83
2022/08/27 16:57:30;;;;;;;105.30;61.55;;;25.00;82.20;;;;;;9530428;31;20600;-84
2022/08/27 17:02:33;;;;;;;66.03;34.88;;;24.90;83.00;;;;;;9537782;31;20044;-85
2022/08/27 17:07:34;;;;;;;39.15;21.08;;;24.80;83.70;;;;;;9548637;31;20410;-85
2022/08/27 17:12:34;;;;;;;40.03;19.38;;;24.60;87.70;;;;;;9544478;31;20055;-84
2022/08/27 17:17:37;;;;;;;42.65;24.08;;;24.30;89.40;;;;;;9542360;30;20042;-85
2022/08/27 17:22:38;;;;;;;42.67;23.58;;;24.00;90.90;;;;;;9538185;31;20091;-83
2022/08/27 17:27:38;;;;;;;51.72;28.38;;;23.80;91.30;;;;;;9536091;31;20483;-85
2022/08/27 17:32:42;;;;;;;41.10;24.80;;;23.50;93.00;;;;;;9549778;31;20413;-82
2022/08/27 17:37:43;;;;;;;44.70;26.30;;;23.40;94.40;;;;;;9545849;31;20626;-81
2022/08/27 17:42:45;;;;;;;98.75;51.60;;;23.10;96.40;;;;;;9555286;30;20211;-79
2022/08/27 17:47:46;;;;;;;27.73;17.02;;;23.10;99.20;;;;;;9546242;31;20552;-79
2022/08/27 17:52:47;;;;;;;26.65;16.65;;;22.90;99.90;;;;;;9546642;31;20050;-79
2022/08/27 17:57:48;;;;;;;23.00;13.02;;;22.70;99.90;;;;;;9545812;31;20456;-81
2022/08/27 18:02:51;;;;;;;24.15;13.45;;;22.50;99.90;;;;;;9532958;31;20028;-79
2022/08/27 18:07:52;;;;;;;24.50;12.80;;;22.50;99.90;;;;;;9543213;31;20032;-79
2022/08/27 18:12:54;;;;;;;20.63;11.40;;;22.50;99.90;;;;;;9549639;31;20060;-79
2022/08/27 18:17:56;;;;;;;23.45;12.88;;;22.40;99.90;;;;;;9547975;31;20040;-82
2022/08/27 18:22:58;;;;;;;22.40;13.18;;;22.40;99.90;;;;;;9540257;31;20133;-80
2022/08/27 18:28:06;;;;;;;19.73;12.38;;;22.30;99.90;;;;;;9540668;31;20037;-79
2022/08/27 18:33:07;;;;;;;20.65;11.35;;;22.20;99.90;;;;;;9535472;31;20044;-80
2022/08/27 18:38:07;;;;;;;18.63;11.70;;;22.10;99.90;;;;;;9550232;31;20065;-81
2022/08/27 18:43:09;;;;;;;17.70;11.95;;;22.00;99.90;;;;;;9533235;31;20091;-80
2022/08/27 18:48:17;;;;;;;19.17;11.88;;;21.90;99.90;;;;;;9549131;31;20074;-81
2022/08/27 18:53:19;;;;;;;17.02;11.93;;;21.80;99.90;;;;;;9545541;31;20561;-79
2022/08/27 18:58:20;;;;;;;23.67;12.43;;;21.90;99.90;;;;;;9553699;31;20043;-81
2022/08/27 19:03:31;;;;;;;18.27;12.45;;;21.80;99.90;;;;;;9549806;31;20044;-80
2022/08/27 19:08:32;;;;;;;18.70;12.32;;;21.70;99.90;;;;;;9543228;31;20036;-81
2022/08/27 19:13:34;;;;;;;24.17;14.32;;;21.70;99.90;;;;;;9540664;31;20056;-80
2022/08/27 19:18:36;;;;;;;23.92;14.32;;;21.60;99.90;;;;;;9545087;30;20040;-80
2022/08/27 19:23:37;;;;;;;24.65;15.60;;;21.60;99.90;;;;;;9542710;31;20059;-80
2022/08/27 19:28:40;;;;;;;33.92;19.02;;;21.50;99.90;;;;;;9537980;31;20055;-81
2022/08/27 19:33:42;;;;;;;27.33;16.75;;;21.50;99.90;;;;;;9553274;31;20062;-82
2022/08/27 19:38:44;;;;;;;24.05;15.25;;;21.40;99.90;;;;;;9548214;31;20122;-81
2022/08/27 19:43:44;;;;;;;23.88;14.82;;;21.40;99.90;;;;;;9547751;31;20482;-80
2022/08/27 19:48:45;;;;;;;25.70;16.67;;;21.40;99.90;;;;;;9532970;31;20063;-79
2022/08/27 19:53:46;;;;;;;23.88;14.30;;;21.30;99.90;;;;;;9538720;31;20395;-81
2022/08/27 19:58:46;;;;;;;22.27;13.77;;;21.30;99.90;;;;;;9538835;31;20043;-81
2022/08/27 20:03:48;;;;;;;19.38;14.13;;;21.20;99.90;;;;;;9550250;31;20035;-80
2022/08/27 20:08:49;;;;;;;34.47;21.65;;;21.30;99.90;;;;;;9532746;31;20039;-80
2022/08/27 20:13:49;;;;;;;29.30;20.52;;;21.30;99.90;;;;;;9542959;31;20056;-80
2022/08/27 20:18:50;;;;;;;26.20;18.33;;;21.30;99.90;;;;;;9541788;31;20039;-80
2022/08/27 20:23:50;;;;;;;28.10;16.83;;;21.30;99.90;;;;;;9542451;31;20494;-80
2022/08/27 20:28:51;;;;;;;23.75;15.93;;;21.30;99.90;;;;;;9559889;31;20188;-81
2022/08/27 20:33:53;;;;;;;21.98;14.88;;;21.20;99.90;;;;;;9546429;31;20125;-79
2022/08/27 20:38:54;;;;;;;22.40;15.10;;;21.20;99.90;;;;;;9540527;30;20406;-81
2022/08/27 20:43:55;;;;;;;24.55;16.83;;;21.30;99.90;;;;;;9548636;31;20099;-79
2022/08/27 20:48:56;;;;;;;24.63;15.88;;;21.30;99.90;;;;;;9538715;31;20091;-82
2022/08/27 20:53:57;;;;;;;24.20;13.32;;;21.30;99.90;;;;;;9539771;31;20431;-80
2022/08/27 21:04:16;;;;;;;24.88;12.57;;;21.30;99.90;;;;;;9553910;31;20690;-83
2022/08/27 21:09:17;;;;;;;15.73;10.60;;;21.20;99.90;;;;;;9563240;30;20047;-82
2022/08/27 21:14:18;;;;;;;16.63;10.55;;;21.00;99.90;;;;;;9552343;31;20043;-80
2022/08/27 21:19:18;;;;;;;20.00;12.05;;;20.90;99.90;;;;;;9556096;31;20047;-80
2022/08/27 21:24:19;;;;;;;17.25;10.95;;;20.80;99.90;;;;;;9556534;30;20063;-80
2022/08/27 21:29:20;;;;;;;19.23;12.43;;;20.60;99.90;;;;;;9557121;31;20652;-82
2022/08/27 21:34:21;;;;;;;20.80;12.60;;;20.50;99.90;;;;;;9547191;30;20059;-79
2022/08/27 21:39:22;;;;;;;23.17;12.02;;;20.40;99.90;;;;;;9554543;31;20074;-81
2022/08/27 21:44:22;;;;;;;15.20;10.32;;;20.20;99.90;;;;;;9559860;30;20386;-80
2022/08/27 21:49:23;;;;;;;18.60;11.38;;;20.10;99.90;;;;;;9567267;31;20051;-80
2022/08/27 21:54:24;;;;;;;14.88;10.40;;;20.00;99.90;;;;;;9546296;31;20091;-80
2022/08/27 21:59:24;;;;;;;16.00;10.45;;;19.90;99.90;;;;;;9544294;31;20040;-80
2022/08/27 22:04:25;;;;;;;17.08;11.40;;;19.80;99.90;;;;;;9544864;31;20035;-82
2022/08/27 22:09:27;;;;;;;21.30;12.15;;;19.70;99.90;;;;;;9561322;31;20130;-80
2022/08/27 22:14:27;;;;;;;23.13;11.98;;;19.60;99.90;;;;;;9558741;30;20530;-80
2022/08/27 22:19:28;;;;;;;15.88;9.43;;;19.60;99.90;;;;;;9540966;31;20039;-80
2022/08/27 22:24:28;;;;;;;20.23;11.57;;;19.60;99.90;;;;;;9543143;31;20079;-80
2022/08/27 22:29:30;;;;;;;18.65;11.75;;;19.50;99.90;;;;;;9544997;31;20446;-80
2022/08/27 22:34:31;;;;;;;13.45;10.20;;;19.40;99.90;;;;;;9530583;31;20333;-80
2022/08/27 22:39:32;;;;;;;16.83;11.20;;;19.50;99.90;;;;;;9539547;31;20035;-80
2022/08/27 22:44:33;;;;;;;21.83;12.98;;;19.60;99.90;;;;;;9536354;31;20115;-80
2022/08/27 22:49:33;;;;;;;14.45;10.10;;;19.60;99.90;;;;;;9534130;31;20043;-80
2022/08/27 22:54:34;;;;;;;17.15;10.02;;;19.70;99.90;;;;;;9542871;31;20059;-79
2022/08/27 22:59:34;;;;;;;17.05;10.50;;;19.70;99.90;;;;;;9540688;31;20058;-79
2022/08/27 23:04:39;;;;;;;15.50;10.15;;;19.60;99.90;;;;;;9537623;31;20044;-80
2022/08/27 23:09:40;;;;;;;14.63;10.40;;;19.50;99.90;;;;;;9540258;31;20048;-80
2022/08/27 23:14:41;;;;;;;17.13;10.82;;;19.40;99.90;;;;;;9542094;31;20043;-83
2022/08/27 23:19:42;;;;;;;19.63;11.95;;;19.20;99.90;;;;;;9537869;31;20410;-80
2022/08/27 23:30:04;;;;;;;20.00;12.98;;;19.40;99.90;;;;;;9544647;31;20063;-81
2022/08/27 23:35:05;;;;;;;21.98;13.38;;;19.40;99.90;;;;;;9542670;31;20051;-81
2022/08/27 23:40:08;;;;;;;26.17;15.35;;;19.30;99.90;;;;;;9538787;31;20119;-81
2022/08/27 23:45:14;;;;;;;26.90;16.38;;;19.40;99.90;;;;;;9540781;31;20048;-81
2022/08/27 23:50:15;;;;;;;31.05;17.02;;;19.30;99.90;;;;;;9540909;31;20040;-81
2022/08/27 23:55:16;;;;;;;24.50;15.93;;;19.30;99.90;;;;;;9534640;31;20485;-81
